createdAt,value
2018-09-25T00:01:29.250Z,1.00
2018-09-25T00:04:04.741Z,0.93
2018-09-25T00:06:40.455Z,0.80
2018-09-25T00:09:15.701Z,1.00
2018-09-25T00:11:50.847Z,1.15
2018-09-25T00:14:26.531Z,1.20
2018-09-25T00:17:02.034Z,1.17
2018-09-25T00:19:37.415Z,1.60
2018-09-25T00:22:12.650Z,1.25
2018-09-25T00:24:47.867Z,1.02
2018-09-25T00:27:23.172Z,1.10
2018-09-25T00:29:58.591Z,1.20
2018-09-25T00:32:33.936Z,1.72
2018-09-25T00:35:09.345Z,1.00
2018-09-25T00:37:44.827Z,1.02
2018-09-25T00:40:20.187Z,0.98
2018-09-25T00:42:55.473Z,1.45
2018-09-25T00:45:30.899Z,1.15
2018-09-25T00:48:06.297Z,1.45
2018-09-25T00:50:41.705Z,1.80
2018-09-25T00:53:17.115Z,1.65
2018-09-25T00:55:52.158Z,1.30
2018-09-25T00:58:27.635Z,1.10
2018-09-25T01:01:02.854Z,1.25
2018-09-25T01:03:38.173Z,1.32
2018-09-25T01:06:13.447Z,1.50
2018-09-25T01:08:48.740Z,1.20
2018-09-25T01:11:24.131Z,2.02
2018-09-25T01:13:59.472Z,1.20
2018-09-25T01:16:34.736Z,1.17
2018-09-25T01:19:10.941Z,1.10
2018-09-25T01:21:46.279Z,0.90
2018-09-25T01:24:21.727Z,1.00
2018-09-25T01:26:57.119Z,0.93
2018-09-25T01:29:32.467Z,1.20
2018-09-25T01:32:07.645Z,1.45
2018-09-25T01:34:43.015Z,1.55
2018-09-25T01:37:18.216Z,1.50
2018-09-25T01:39:53.478Z,1.30
2018-09-25T01:42:28.619Z,1.10
2018-09-25T01:45:04.074Z,1.15
2018-09-25T01:47:39.509Z,2.15
2018-09-25T01:50:14.933Z,1.37
2018-09-25T01:52:50.118Z,1.27
2018-09-25T01:55:25.401Z,1.20
2018-09-25T01:58:00.753Z,1.22
2018-09-25T02:00:36.114Z,1.15
2018-09-25T02:03:11.479Z,1.30
2018-09-25T02:05:46.847Z,1.27
2018-09-25T02:08:22.012Z,1.62
2018-09-25T02:10:57.375Z,1.52
2018-09-25T02:13:32.738Z,1.30
2018-09-25T02:16:14.688Z,3.25
2018-09-25T02:18:50.164Z,1.92
2018-09-25T02:21:25.263Z,1.00
2018-09-25T02:24:00.578Z,1.00
2018-09-25T02:26:35.811Z,1.25
2018-09-25T02:29:11.437Z,1.02
2018-09-25T02:31:46.782Z,1.55
2018-09-25T02:34:22.058Z,0.80
2018-09-25T02:36:57.558Z,1.67
2018-09-25T02:39:32.975Z,1.30
2018-09-25T02:42:08.399Z,1.65
2018-09-25T02:44:43.565Z,1.30
2018-09-25T02:47:18.987Z,1.70
2018-09-25T02:49:54.227Z,1.65
2018-09-25T02:52:29.426Z,1.92
2018-09-25T02:55:04.837Z,1.10
2018-09-25T02:57:40.148Z,1.75
2018-09-25T03:00:15.353Z,1.50
2018-09-25T03:02:50.710Z,1.37
2018-09-25T03:05:26.172Z,2.35
2018-09-25T03:08:01.546Z,2.02
2018-09-25T03:10:36.808Z,1.40
2018-09-25T03:13:12.138Z,1.72
2018-09-25T03:15:47.464Z,1.52
2018-09-25T03:18:22.757Z,1.60
2018-09-25T03:20:58.426Z,1.80
2018-09-25T03:23:33.769Z,2.52
2018-09-25T03:26:08.993Z,2.17
2018-09-25T03:28:44.159Z,2.60
2018-09-25T03:31:19.364Z,2.50
2018-09-25T03:33:54.731Z,2.45
2018-09-25T03:36:29.774Z,2.83
2018-09-25T03:39:05.144Z,2.65
2018-09-25T03:41:40.623Z,2.30
2018-09-25T03:44:16.059Z,2.10
2018-09-25T03:46:51.410Z,2.47
2018-09-25T03:49:26.611Z,2.25
2018-09-25T03:52:01.761Z,2.33
2018-09-25T03:54:37.083Z,1.95
2018-09-25T03:57:12.418Z,1.80
2018-09-25T03:59:47.781Z,2.05
2018-09-25T04:02:23.048Z,2.00
2018-09-25T04:04:58.273Z,1.60
2018-09-25T04:07:33.608Z,1.37
2018-09-25T04:10:08.794Z,1.30
2018-09-25T04:12:44.228Z,2.12
2018-09-25T04:15:19.595Z,1.72
2018-09-25T04:17:54.964Z,1.67
2018-09-25T04:20:30.183Z,1.60
2018-09-25T04:23:05.441Z,1.75
2018-09-25T04:25:40.966Z,1.60
2018-09-25T04:28:16.386Z,2.20
2018-09-25T04:30:51.741Z,1.55
2018-09-25T04:33:27.178Z,1.57
2018-09-25T04:36:02.615Z,1.90
2018-09-25T04:38:37.956Z,1.80
2018-09-25T04:41:13.260Z,1.87
2018-09-25T04:43:48.552Z,1.70
2018-09-25T04:46:23.623Z,1.55
2018-09-25T04:48:59.032Z,2.00
2018-09-25T04:54:35.776Z,1.42
2018-09-25T04:57:11.236Z,1.42
2018-09-25T04:59:46.678Z,2.20
2018-09-25T05:02:22.019Z,1.20
2018-09-25T05:04:57.266Z,1.07
2018-09-25T05:07:32.413Z,1.92
2018-09-25T05:10:07.986Z,1.90
2018-09-25T05:12:43.259Z,1.30
2018-09-25T05:15:18.602Z,1.82
2018-09-25T05:17:53.958Z,1.37
2018-09-25T05:20:29.180Z,1.60
2018-09-25T05:23:04.361Z,1.42
2018-09-25T05:25:39.831Z,1.40
2018-09-25T05:28:15.598Z,1.92
2018-09-25T05:30:50.973Z,1.60
2018-09-25T05:33:26.310Z,1.90
2018-09-25T05:36:01.719Z,1.62
2018-09-25T05:38:36.896Z,1.22
2018-09-25T05:41:12.282Z,2.17
2018-09-25T05:43:47.699Z,1.60
2018-09-25T05:46:22.743Z,1.57
2018-09-25T05:48:58.337Z,1.50
2018-09-25T05:51:34.777Z,1.62
2018-09-25T05:54:10.013Z,1.82
2018-09-25T05:56:45.060Z,1.87
2018-09-25T05:59:20.813Z,2.15
2018-09-25T06:01:56.153Z,1.98
2018-09-25T06:04:31.618Z,1.52
2018-09-25T06:07:06.733Z,2.20
2018-09-25T06:09:42.127Z,2.50
2018-09-25T06:12:17.520Z,1.40
2018-09-25T06:14:52.958Z,1.70
2018-09-25T06:17:28.322Z,1.45
2018-09-25T06:20:03.798Z,2.12
2018-09-25T06:22:38.957Z,1.57
2018-09-25T06:25:14.446Z,1.70
2018-09-25T06:27:49.739Z,2.10
2018-09-25T06:30:24.999Z,1.52
2018-09-25T06:33:00.319Z,1.75
2018-09-25T06:35:35.806Z,1.90
2018-09-25T06:38:11.066Z,1.32
2018-09-25T06:40:46.350Z,1.92
2018-09-25T06:43:21.779Z,1.30
2018-09-25T06:45:57.165Z,2.98
2018-09-25T06:48:32.604Z,2.12
2018-09-25T06:51:07.890Z,1.10
2018-09-25T06:53:43.026Z,1.80
2018-09-25T06:56:18.210Z,2.62
2018-09-25T06:58:53.464Z,2.25
2018-09-25T07:01:28.755Z,1.98
2018-09-25T07:04:03.967Z,2.65
2018-09-25T07:06:39.413Z,1.70
2018-09-25T07:09:14.814Z,2.75
2018-09-25T07:11:50.146Z,1.80
2018-09-25T07:14:25.486Z,2.40
2018-09-25T07:17:00.737Z,2.77
2018-09-25T07:19:35.966Z,2.42
2018-09-25T07:22:11.195Z,1.62
2018-09-25T07:24:46.732Z,2.00
2018-09-25T07:27:22.242Z,2.33
2018-09-25T07:29:57.811Z,2.08
2018-09-25T07:32:33.527Z,2.05
2018-09-25T07:35:08.796Z,2.30
2018-09-25T07:37:44.172Z,1.92
2018-09-25T07:40:19.510Z,2.65
2018-09-25T07:42:54.914Z,1.60
2018-09-25T07:45:30.085Z,2.33
2018-09-25T07:48:05.488Z,1.65
2018-09-25T07:50:40.626Z,2.12
2018-09-25T07:53:15.725Z,1.90
2018-09-25T07:55:51.047Z,2.00
2018-09-25T07:58:26.457Z,2.02
2018-09-25T08:01:01.854Z,2.52
2018-09-25T08:03:37.187Z,1.75
2018-09-25T08:06:12.548Z,1.72
2018-09-25T08:08:47.784Z,2.40
2018-09-25T08:11:23.125Z,1.75
2018-09-25T08:13:58.305Z,1.98
2018-09-25T08:16:33.895Z,1.87
2018-09-25T08:19:09.181Z,1.67
2018-09-25T08:21:44.498Z,1.82
2018-09-25T08:24:19.842Z,2.12
2018-09-25T08:26:55.131Z,2.27
2018-09-25T08:29:30.411Z,1.80
2018-09-25T08:32:05.932Z,2.02
2018-09-25T08:34:42.021Z,1.60
2018-09-25T08:37:17.371Z,2.30
2018-09-25T08:39:53.167Z,1.90
2018-09-25T08:42:28.522Z,2.00
2018-09-25T08:45:03.786Z,1.93
2018-09-25T08:47:39.105Z,1.67
2018-09-25T08:50:14.267Z,1.70
2018-09-25T08:52:49.680Z,1.43
2018-09-25T08:55:24.965Z,1.57
2018-09-25T08:58:00.177Z,2.60
2018-09-25T09:00:35.427Z,1.53
2018-09-25T09:03:10.871Z,1.73
2018-09-25T09:05:47.152Z,1.50
2018-09-25T09:08:22.561Z,1.53
2018-09-25T09:10:57.732Z,2.10
2018-09-25T09:13:33.221Z,1.40
2018-09-25T09:16:08.829Z,1.80
2018-09-25T09:18:44.020Z,1.20
2018-09-25T09:21:19.141Z,2.23
2018-09-25T09:23:54.669Z,1.30
2018-09-25T09:26:30.096Z,1.90
2018-09-25T09:29:05.655Z,1.53
2018-09-25T09:31:40.929Z,1.67
2018-09-25T09:34:16.294Z,1.57
2018-09-25T09:36:51.746Z,1.77
2018-09-25T09:39:27.038Z,1.60
2018-09-25T09:42:02.555Z,1.53
2018-09-25T09:44:37.595Z,1.43
2018-09-25T09:47:12.866Z,1.60
2018-09-25T09:49:48.292Z,1.60
2018-09-25T09:52:23.742Z,1.30
2018-09-25T09:54:59.370Z,1.17
2018-09-25T09:57:34.910Z,1.37
2018-09-25T10:00:10.362Z,1.33
2018-09-25T10:02:45.724Z,1.30
2018-09-25T10:05:21.290Z,1.00
2018-09-25T10:07:56.605Z,1.13
2018-09-25T10:10:31.840Z,2.47
2018-09-25T10:13:07.018Z,1.10
2018-09-25T10:15:42.496Z,1.80
2018-09-25T10:18:17.779Z,1.20
2018-09-25T10:20:52.983Z,1.50
2018-09-25T10:23:28.403Z,1.20
2018-09-25T10:26:03.875Z,1.30
2018-09-25T10:28:39.281Z,1.30
2018-09-25T10:31:14.730Z,0.97
2018-09-25T10:33:50.128Z,0.83
2018-09-25T10:36:25.195Z,1.37
2018-09-25T10:39:00.526Z,1.10
2018-09-25T10:41:35.867Z,1.40
2018-09-25T10:44:11.370Z,1.30
2018-09-25T10:46:46.563Z,1.53
2018-09-25T10:49:21.899Z,1.50
2018-09-25T10:51:57.495Z,1.43
2018-09-25T10:54:32.747Z,1.43
2018-09-25T10:57:08.013Z,1.20
2018-09-25T10:59:43.309Z,1.23
2018-09-25T11:02:18.767Z,0.90
2018-09-25T11:04:54.136Z,1.37
2018-09-25T11:07:29.373Z,0.80
2018-09-25T11:10:04.750Z,1.00
2018-09-25T11:12:40.061Z,1.10
2018-09-25T11:15:15.226Z,1.03
2018-09-25T11:17:50.598Z,1.10
2018-09-25T11:20:25.808Z,1.30
2018-09-25T11:23:01.311Z,0.90
2018-09-25T11:25:36.704Z,1.23
2018-09-25T11:28:11.965Z,1.20
2018-09-25T11:30:47.199Z,1.57
2018-09-25T11:33:22.627Z,1.43
2018-09-25T11:35:57.868Z,1.30
2018-09-25T11:38:33.098Z,1.10
2018-09-25T11:41:08.416Z,1.23
2018-09-25T11:43:43.784Z,1.10
2018-09-25T11:46:19.051Z,1.83
2018-09-25T11:48:54.282Z,1.50
2018-09-25T11:51:29.612Z,1.00
2018-09-25T11:54:04.888Z,1.30
2018-09-25T11:56:40.208Z,4.40
2018-09-25T11:59:15.751Z,1.13
2018-09-25T12:01:50.959Z,0.90
2018-09-25T12:04:26.340Z,1.30
2018-09-25T12:07:01.958Z,1.87
2018-09-25T12:09:37.310Z,1.10
2018-09-25T12:12:13.192Z,1.00
2018-09-25T12:14:48.687Z,1.20
2018-09-25T12:17:24.104Z,1.07
2018-09-25T12:19:59.555Z,1.20
2018-09-25T12:22:35.386Z,1.03
2018-09-25T12:25:10.608Z,1.07
2018-09-25T12:27:46.003Z,1.03
2018-09-25T12:30:21.207Z,1.17
2018-09-25T12:32:56.407Z,0.83
2018-09-25T12:35:31.561Z,0.90
2018-09-25T12:38:07.140Z,1.07
2018-09-25T12:40:42.427Z,1.10
2018-09-25T12:43:17.589Z,0.87
2018-09-25T12:45:52.850Z,0.90
2018-09-25T12:48:28.275Z,0.93
2018-09-25T12:51:03.469Z,0.80
2018-09-25T12:53:38.863Z,0.80
2018-09-25T12:56:14.301Z,0.70
2018-09-25T12:58:49.710Z,1.90
2018-09-25T13:01:24.891Z,1.17
2018-09-25T13:04:00.315Z,1.00
2018-09-25T13:06:35.483Z,1.10
2018-09-25T13:09:14.466Z,0.80
2018-09-25T13:11:50.249Z,1.03
2018-09-25T13:14:25.695Z,0.90
2018-09-25T13:17:01.184Z,1.30
2018-09-25T13:19:38.075Z,1.20
2018-09-25T13:22:13.440Z,1.07
2018-09-25T13:24:48.886Z,1.00
2018-09-25T13:27:24.051Z,0.70
2018-09-25T13:29:59.638Z,1.03
2018-09-25T13:32:34.737Z,0.90
2018-09-25T13:35:10.111Z,0.87
2018-09-25T13:37:45.491Z,1.40
2018-09-25T13:40:21.607Z,1.00
2018-09-25T13:42:56.941Z,1.17
2018-09-25T13:45:32.266Z,0.80
2018-09-25T13:48:07.538Z,1.20
2018-09-25T13:50:42.895Z,1.20
2018-09-25T13:53:18.300Z,1.10
2018-09-25T13:55:53.532Z,1.00
2018-09-25T13:58:29.150Z,1.00
2018-09-25T14:01:04.302Z,1.27
2018-09-25T14:03:39.664Z,0.80
2018-09-25T14:06:14.859Z,1.00
2018-09-25T14:08:50.134Z,1.60
2018-09-25T14:11:25.479Z,1.00
2018-09-25T14:14:00.665Z,0.77
2018-09-25T14:16:36.111Z,0.90
2018-09-25T14:19:11.371Z,1.00
2018-09-25T14:21:46.647Z,0.90
2018-09-25T14:24:22.050Z,1.07
2018-09-25T14:26:57.434Z,0.67
2018-09-25T14:29:32.696Z,0.80
2018-09-25T14:32:08.108Z,0.90
2018-09-25T14:34:43.540Z,1.00
2018-09-25T14:37:19.311Z,1.10
2018-09-25T14:39:54.614Z,1.10
2018-09-25T14:42:29.921Z,1.00
2018-09-25T14:45:05.511Z,1.10
2018-09-25T14:47:41.003Z,2.00
2018-09-25T14:50:16.377Z,1.20
2018-09-25T14:52:51.819Z,1.17
2018-09-25T14:55:27.301Z,0.80
2018-09-25T14:58:02.746Z,0.97
2018-09-25T15:00:38.173Z,1.30
2018-09-25T15:03:13.638Z,1.00
2018-09-25T15:05:49.027Z,1.20
2018-09-25T15:08:24.174Z,0.80
2018-09-25T15:10:59.579Z,0.97
2018-09-25T15:13:34.905Z,0.90
2018-09-25T15:16:10.258Z,0.70
2018-09-25T15:18:45.738Z,1.00
2018-09-25T15:21:21.382Z,0.90
2018-09-25T15:23:56.595Z,1.30
2018-09-25T15:26:31.703Z,0.97
2018-09-25T15:29:07.020Z,0.70
2018-09-25T15:31:42.515Z,1.00
2018-09-25T15:34:17.776Z,1.07
2018-09-25T15:36:53.164Z,1.27
2018-09-25T15:39:28.581Z,1.50
2018-09-25T15:42:03.887Z,1.20
2018-09-25T15:44:39.681Z,1.67
2018-09-25T15:47:15.236Z,1.17
2018-09-25T15:49:50.545Z,1.20
2018-09-25T15:52:25.665Z,1.63
2018-09-25T15:55:00.898Z,1.40
2018-09-25T15:57:36.170Z,1.20
2018-09-25T16:00:11.907Z,1.00
2018-09-25T16:02:47.067Z,0.70
2018-09-25T16:05:22.630Z,1.20
2018-09-25T16:07:58.091Z,0.90
2018-09-25T16:10:36.932Z,1.40
2018-09-25T16:13:12.189Z,1.10
2018-09-25T16:15:47.814Z,0.90
2018-09-25T16:18:23.210Z,1.10
2018-09-25T16:20:59.019Z,1.27
2018-09-25T16:23:34.327Z,1.07
2018-09-25T16:26:09.844Z,1.63
2018-09-25T16:28:44.902Z,0.97
2018-09-25T16:31:20.114Z,1.40
2018-09-25T16:33:55.377Z,1.00
2018-09-25T16:36:30.713Z,1.30
2018-09-25T16:39:06.018Z,1.10
2018-09-25T16:41:41.259Z,0.97
2018-09-25T16:44:16.690Z,1.70
2018-09-25T16:46:51.952Z,1.63
2018-09-25T16:49:27.103Z,1.47
2018-09-25T16:52:02.443Z,1.37
2018-09-25T16:54:37.876Z,1.63
2018-09-25T16:57:13.297Z,1.70
2018-09-25T16:59:48.504Z,1.47
2018-09-25T17:02:23.751Z,1.50
2018-09-25T17:04:58.843Z,1.87
2018-09-25T17:07:34.639Z,1.57
2018-09-25T17:10:09.923Z,1.60
2018-09-25T17:12:45.082Z,1.53
2018-09-25T17:15:20.327Z,1.67
2018-09-25T17:17:55.878Z,2.07
2018-09-25T17:20:31.185Z,2.30
2018-09-25T17:23:06.425Z,2.20
2018-09-25T17:25:41.768Z,2.40
2018-09-25T17:28:17.145Z,2.07
2018-09-25T17:30:52.616Z,2.10
2018-09-25T17:33:28.573Z,2.10
2018-09-25T17:36:04.218Z,2.00
2018-09-25T17:38:39.649Z,2.97
2018-09-25T17:41:14.981Z,2.70
2018-09-25T17:43:50.323Z,1.87
2018-09-25T17:46:25.825Z,3.20
2018-09-25T17:49:00.988Z,3.00
2018-09-25T17:51:36.422Z,3.70
2018-09-25T17:54:11.664Z,3.60
2018-09-25T17:56:46.936Z,4.13
2018-09-25T17:59:22.105Z,3.80
2018-09-25T18:01:57.616Z,3.60
2018-09-25T18:04:32.860Z,2.33
2018-09-25T18:07:08.124Z,2.20
2018-09-25T18:09:43.458Z,2.80
2018-09-25T18:12:18.859Z,2.60
2018-09-25T18:14:54.171Z,2.50
2018-09-25T18:17:29.407Z,2.87
2018-09-25T18:20:04.492Z,2.80
2018-09-25T18:22:39.695Z,2.98
2018-09-25T18:25:14.866Z,3.93
2018-09-25T18:30:30.556Z,4.08
2018-09-25T18:33:06.020Z,3.58
2018-09-25T18:35:41.487Z,3.62
2018-09-25T18:38:16.712Z,4.78
2018-09-25T18:40:52.043Z,6.00
2018-09-25T18:43:27.867Z,4.97
2018-09-25T18:46:02.959Z,5.40
2018-09-25T18:48:38.464Z,6.92
2018-09-25T18:51:13.790Z,5.87
2018-09-25T18:53:49.177Z,6.42
2018-09-25T18:56:24.460Z,5.70
2018-09-25T18:58:59.753Z,5.67
2018-09-25T19:01:35.064Z,6.03
2018-09-25T19:04:10.726Z,5.75
2018-09-25T19:06:47.181Z,6.22
2018-09-25T19:09:22.322Z,7.50
2018-09-25T19:11:57.770Z,21.05
2018-09-25T19:14:33.109Z,8.95
2018-09-25T19:17:08.321Z,6.45
2018-09-25T19:19:43.530Z,5.67
2018-09-25T19:22:18.885Z,5.00
2018-09-25T19:24:54.371Z,5.20
2018-09-25T19:27:29.940Z,4.83
2018-09-25T19:30:05.364Z,5.90
2018-09-25T19:32:40.690Z,4.20
2018-09-25T19:35:16.083Z,5.12
2018-09-25T19:37:51.523Z,5.67
2018-09-25T19:40:27.046Z,5.05
2018-09-25T19:43:02.305Z,4.95
2018-09-25T19:45:37.656Z,3.90
2018-09-25T19:48:13.156Z,4.42
2018-09-25T19:50:48.501Z,4.70
2018-09-25T19:53:23.930Z,4.83
2018-09-25T19:55:59.327Z,4.53
2018-09-25T19:58:34.481Z,4.03
2018-09-25T20:01:09.956Z,4.47
2018-09-25T20:03:45.114Z,5.17
2018-09-25T20:06:20.480Z,4.92
2018-09-25T20:08:55.880Z,5.05
2018-09-25T20:11:31.205Z,5.10
2018-09-25T20:14:06.561Z,6.12
2018-09-25T20:16:41.843Z,5.80
2018-09-25T20:19:17.217Z,4.83
2018-09-25T20:21:52.640Z,5.53
2018-09-25T20:24:27.951Z,4.78
2018-09-25T20:27:03.227Z,5.35
2018-09-25T20:29:40.178Z,5.17
2018-09-25T20:32:16.923Z,4.15
2018-09-25T20:34:52.320Z,4.55
2018-09-25T20:37:27.586Z,5.40
2018-09-25T20:40:02.790Z,5.80
2018-09-25T20:42:38.135Z,5.50
2018-09-25T20:45:13.539Z,4.78
2018-09-25T20:47:48.975Z,3.52
2018-09-25T20:50:24.327Z,3.42
2018-09-25T20:52:59.744Z,3.25
2018-09-25T20:55:35.251Z,3.47
2018-09-25T20:58:10.466Z,3.98
2018-09-25T21:00:46.146Z,4.00
2018-09-25T21:03:21.721Z,4.00
2018-09-25T21:05:57.124Z,3.65
2018-09-25T21:08:32.549Z,4.12
2018-09-25T21:14:06.138Z,3.30
2018-09-25T21:16:41.448Z,3.77
2018-09-25T21:19:16.811Z,3.00
2018-09-25T21:21:52.031Z,3.30
2018-09-25T21:24:27.234Z,3.00
2018-09-25T21:27:02.425Z,3.60
2018-09-25T21:29:37.830Z,3.10
2018-09-25T21:32:13.049Z,3.02
2018-09-25T21:34:48.476Z,3.10
2018-09-25T21:37:23.691Z,3.20
2018-09-25T21:39:59.002Z,3.10
2018-09-25T21:42:34.273Z,3.15
2018-09-25T21:45:09.759Z,2.90
2018-09-25T21:47:44.919Z,2.77
2018-09-25T21:50:20.764Z,3.40
2018-09-25T21:52:56.074Z,2.98
2018-09-25T21:55:31.514Z,2.98
2018-09-25T21:58:06.706Z,3.30
2018-09-25T22:00:42.005Z,2.87
2018-09-25T22:03:17.200Z,3.90
2018-09-25T22:05:53.057Z,3.15
2018-09-25T22:08:28.188Z,3.47
2018-09-25T22:11:03.307Z,3.92
2018-09-25T22:13:38.701Z,3.70
2018-09-25T22:16:14.208Z,3.50
2018-09-25T22:18:49.662Z,4.30
2018-09-25T22:21:25.024Z,4.03
2018-09-25T22:24:00.397Z,3.12
2018-09-25T22:26:35.736Z,3.02
2018-09-25T22:29:10.977Z,3.40
2018-09-25T22:31:46.447Z,3.20
2018-09-25T22:34:28.887Z,3.25
2018-09-25T22:37:04.381Z,2.90
2018-09-25T22:39:39.574Z,3.30
2018-09-25T22:42:14.870Z,2.80
2018-09-25T22:44:50.648Z,3.08
2018-09-25T22:47:26.012Z,2.50
2018-09-25T22:50:01.345Z,2.92
2018-09-25T22:52:36.691Z,2.42
2018-09-25T22:55:12.202Z,2.70
2018-09-25T22:57:47.462Z,2.77
2018-09-25T23:00:22.566Z,2.90
2018-09-25T23:02:57.607Z,3.35
2018-09-25T23:05:32.826Z,2.90
2018-09-25T23:08:08.066Z,2.90
2018-09-25T23:10:43.605Z,2.15
2018-09-25T23:13:19.057Z,2.40
2018-09-25T23:15:54.136Z,2.65
2018-09-25T23:18:29.475Z,1.80
2018-09-25T23:21:04.754Z,2.20
2018-09-25T23:23:40.038Z,2.10
2018-09-25T23:26:15.373Z,2.30
2018-09-25T23:28:50.584Z,2.17
2018-09-25T23:31:25.766Z,2.35
2018-09-25T23:34:01.786Z,2.37
2018-09-25T23:36:36.984Z,1.77
2018-09-25T23:39:16.281Z,1.87
2018-09-25T23:41:51.892Z,1.75
2018-09-25T23:44:43.862Z,1.90
2018-09-25T23:47:19.655Z,2.17
2018-09-25T23:49:58.808Z,2.25
2018-09-25T23:53:05.602Z,1.90
2018-09-25T23:55:40.579Z,2.30
2018-09-25T23:58:14.195Z,2.30
